createdAt,value
2018-09-03T00:00:21.105Z,58.80
2018-09-03T00:03:24.229Z,58.80
2018-09-03T00:06:27.448Z,58.60
2018-09-03T00:09:46.390Z,58.90
2018-09-03T00:12:49.621Z,59.50
2018-09-03T00:15:52.792Z,59.10
2018-09-03T00:18:55.869Z,59.90
2018-09-03T00:21:59.048Z,60.00
2018-09-03T00:25:02.315Z,60.10
2018-09-03T00:28:05.405Z,60.20
2018-09-03T00:31:14.349Z,59.60
2018-09-03T00:34:23.581Z,60.30
2018-09-03T00:37:32.418Z,59.60
2018-09-03T00:40:40.944Z,60.30
2018-09-03T00:43:51.782Z,60.60
2018-09-03T00:47:04.390Z,60.60
2018-09-03T00:50:07.489Z,60.70
2018-09-03T00:53:10.387Z,61.20
2018-09-03T00:56:13.528Z,60.70
2018-09-03T00:59:16.612Z,60.50
2018-09-03T01:02:19.763Z,60.40
2018-09-03T01:05:22.965Z,60.40
2018-09-03T01:08:26.159Z,60.40
2018-09-03T01:11:29.134Z,60.20
2018-09-03T01:14:32.048Z,59.90
2018-09-03T01:17:34.989Z,60.20
2018-09-03T01:20:37.910Z,60.50
2018-09-03T01:23:40.807Z,60.70
2018-09-03T01:26:43.744Z,60.20
2018-09-03T01:29:53.660Z,60.40
2018-09-03T01:32:56.848Z,60.50
2018-09-03T01:35:59.804Z,60.80
2018-09-03T01:39:04.045Z,60.60
2018-09-03T01:42:08.044Z,60.10
2018-09-03T01:45:11.001Z,60.00
2018-09-03T01:48:14.003Z,60.10
2018-09-03T01:51:17.297Z,60.10
2018-09-03T01:54:20.307Z,60.50
2018-09-03T01:57:23.464Z,60.50
2018-09-03T02:00:26.514Z,60.90
2018-09-03T02:03:29.529Z,60.70
2018-09-03T02:06:32.497Z,60.80
2018-09-03T02:09:35.403Z,60.40
2018-09-03T02:12:38.373Z,60.70
2018-09-03T02:15:41.271Z,60.70
2018-09-03T02:18:44.169Z,61.00
2018-09-03T02:21:47.253Z,60.90
2018-09-03T02:24:50.297Z,61.00
2018-09-03T02:27:53.336Z,61.30
2018-09-03T02:30:56.375Z,61.40
2018-09-03T02:33:59.299Z,62.40
2018-09-03T02:37:02.176Z,62.00
2018-09-03T02:40:05.313Z,61.50
2018-09-03T02:43:08.264Z,61.10
2018-09-03T02:46:11.214Z,61.30
2018-09-03T02:49:14.231Z,60.70
2018-09-03T02:52:17.390Z,60.60
2018-09-03T02:55:20.632Z,61.10
2018-09-03T02:58:23.771Z,61.30
2018-09-03T03:01:27.259Z,61.50
2018-09-03T03:04:30.873Z,61.30
2018-09-03T03:07:33.861Z,61.40
2018-09-03T03:10:36.771Z,61.60
2018-09-03T03:13:39.751Z,61.90
2018-09-03T03:16:42.698Z,61.50
2018-09-03T03:19:45.719Z,61.80
2018-09-03T03:22:48.950Z,61.50
2018-09-03T03:25:51.952Z,61.80
2018-09-03T03:28:55.009Z,62.40
2018-09-03T03:31:57.976Z,61.60
2018-09-03T03:35:00.950Z,61.50
2018-09-03T03:38:04.038Z,61.70
2018-09-03T03:41:06.992Z,61.90
2018-09-03T03:44:10.359Z,61.80
2018-09-03T03:47:14.412Z,62.20
2018-09-03T03:50:24.837Z,62.20
2018-09-03T03:53:27.770Z,62.30
2018-09-03T03:56:30.802Z,62.60
2018-09-03T03:59:33.760Z,62.40
2018-09-03T04:02:36.694Z,62.30
2018-09-03T04:05:39.611Z,62.40
2018-09-03T04:08:42.547Z,62.90
2018-09-03T04:11:45.551Z,62.90
2018-09-03T04:14:48.596Z,62.60
2018-09-03T04:17:51.662Z,62.80
2018-09-03T04:20:54.838Z,62.80
2018-09-03T04:23:57.867Z,62.70
2018-09-03T04:27:00.832Z,62.40
2018-09-03T04:30:03.797Z,62.70
2018-09-03T04:33:13.511Z,62.60
2018-09-03T04:36:16.825Z,63.10
2018-09-03T04:39:19.936Z,62.70
2018-09-03T04:42:23.156Z,63.30
2018-09-03T04:45:26.302Z,63.20
2018-09-03T04:48:29.390Z,63.00
2018-09-03T04:51:32.310Z,62.90
2018-09-03T04:54:35.354Z,62.70
2018-09-03T04:57:38.292Z,63.20
2018-09-03T05:00:41.210Z,63.40
2018-09-03T05:03:44.190Z,63.30
2018-09-03T05:06:47.347Z,63.40
2018-09-03T05:09:50.507Z,63.10
2018-09-03T05:12:53.553Z,63.00
2018-09-03T05:15:56.663Z,63.40
2018-09-03T05:18:59.654Z,63.50
2018-09-03T05:22:02.626Z,63.20
2018-09-03T05:25:06.160Z,63.00
2018-09-03T05:28:09.145Z,63.40
2018-09-03T05:31:12.264Z,63.60
2018-09-03T05:34:15.323Z,63.00
2018-09-03T05:37:18.582Z,63.50
2018-09-03T05:40:21.758Z,63.20
2018-09-03T05:43:24.915Z,63.50
2018-09-03T05:46:28.120Z,63.60
2018-09-03T05:49:31.104Z,63.70
2018-09-03T05:52:34.100Z,63.50
2018-09-03T05:55:37.075Z,63.60
2018-09-03T05:58:40.031Z,63.80
2018-09-03T06:01:42.973Z,63.70
2018-09-03T06:04:46.122Z,63.40
2018-09-03T06:07:49.245Z,63.60
2018-09-03T06:10:52.325Z,63.80
2018-09-03T06:13:55.283Z,63.80
2018-09-03T06:16:58.336Z,64.30
2018-09-03T06:20:01.323Z,64.60
2018-09-03T06:23:04.397Z,64.30
2018-09-03T06:26:07.409Z,64.50
2018-09-03T06:29:10.433Z,64.90
2018-09-03T06:32:13.378Z,65.00
2018-09-03T06:35:16.515Z,65.00
2018-09-03T06:38:19.523Z,64.70
2018-09-03T06:41:22.641Z,65.50
2018-09-03T06:44:25.728Z,65.60
2018-09-03T06:47:28.910Z,66.20
2018-09-03T06:50:31.955Z,65.40
2018-09-03T06:53:35.381Z,64.90
2018-09-03T06:56:38.397Z,64.90
2018-09-03T06:59:41.568Z,65.30
2018-09-03T07:02:44.512Z,65.30
2018-09-03T07:05:47.630Z,65.70
2018-09-03T07:08:50.697Z,65.20
2018-09-03T07:11:53.872Z,65.20
2018-09-03T07:14:56.980Z,65.30
2018-09-03T07:18:00.101Z,66.00
2018-09-03T07:21:03.258Z,66.30
2018-09-03T07:24:06.544Z,67.20
2018-09-03T07:27:09.723Z,66.60
2018-09-03T07:30:12.768Z,67.40
2018-09-03T07:33:22.594Z,68.20
2018-09-03T07:36:25.659Z,68.00
2018-09-03T07:39:28.884Z,68.20
2018-09-03T07:42:32.038Z,68.40
2018-09-03T07:45:35.324Z,68.50
2018-09-03T07:48:38.387Z,68.70
2018-09-03T07:51:41.657Z,68.00
2018-09-03T07:54:44.802Z,67.90
2018-09-03T07:57:47.954Z,67.30
2018-09-03T08:00:50.978Z,67.60
2018-09-03T08:03:54.094Z,67.40
2018-09-03T08:06:57.202Z,67.40
2018-09-03T08:10:00.303Z,67.60
2018-09-03T08:13:03.592Z,67.70
2018-09-03T08:16:06.775Z,67.80
2018-09-03T08:19:09.893Z,68.40
2018-09-03T08:22:12.917Z,68.30
2018-09-03T08:25:15.929Z,68.00
2018-09-03T08:28:19.200Z,67.10
2018-09-03T08:31:22.170Z,68.10
2018-09-03T08:34:25.229Z,68.70
2018-09-03T08:37:28.268Z,68.50
2018-09-03T08:40:31.186Z,67.50
2018-09-03T08:43:34.358Z,68.20
2018-09-03T08:46:37.406Z,68.20
2018-09-03T08:49:40.349Z,67.60
2018-09-03T08:52:43.268Z,67.20
2018-09-03T08:55:46.351Z,66.80
2018-09-03T08:58:49.475Z,67.60
2018-09-03T09:01:52.470Z,67.50
2018-09-03T09:04:55.575Z,67.00
2018-09-03T09:07:58.642Z,66.60
2018-09-03T09:11:01.711Z,66.40
2018-09-03T09:14:04.672Z,67.10
2018-09-03T09:17:08.319Z,66.40
2018-09-03T09:20:11.367Z,66.40
2018-09-03T09:23:14.823Z,66.60
2018-09-03T09:26:18.037Z,67.10
2018-09-03T09:29:21.145Z,66.70
2018-09-03T09:32:24.185Z,66.90
2018-09-03T09:35:27.257Z,66.50
2018-09-03T09:38:30.397Z,66.80
2018-09-03T09:41:33.566Z,66.30
2018-09-03T09:44:37.534Z,66.30
2018-09-03T09:47:40.598Z,66.10
2018-09-03T09:50:43.755Z,65.50
2018-09-03T09:53:46.786Z,65.50
2018-09-03T09:56:49.858Z,65.70
2018-09-03T09:59:53.064Z,66.00
2018-09-03T10:02:56.161Z,65.20
2018-09-03T10:05:59.387Z,65.60
2018-09-03T10:09:03.111Z,66.80
2018-09-03T10:12:06.168Z,65.70
2018-09-03T10:15:09.283Z,65.10
2018-09-03T10:18:12.271Z,66.70
2018-09-03T10:21:15.387Z,67.00
2018-09-03T10:24:18.418Z,67.00
2018-09-03T10:27:21.661Z,67.60
2018-09-03T10:30:24.709Z,66.80
2018-09-03T10:33:27.786Z,66.70
2018-09-03T10:36:30.915Z,65.90
2018-09-03T10:39:33.966Z,65.10
2018-09-03T10:42:36.978Z,66.50
2018-09-03T10:45:43.962Z,65.60
2018-09-03T10:48:46.986Z,66.50
2018-09-03T10:51:50.061Z,66.30
2018-09-03T10:54:53.107Z,65.20
2018-09-03T10:57:56.146Z,63.80
2018-09-03T11:00:59.194Z,64.80
2018-09-03T11:04:02.240Z,65.80
2018-09-03T11:07:05.386Z,65.20
2018-09-03T11:10:08.418Z,65.70
2018-09-03T11:13:11.469Z,65.00
2018-09-03T11:16:14.380Z,65.60
2018-09-03T11:19:18.921Z,64.80
2018-09-03T11:22:22.565Z,65.00
2018-09-03T11:25:26.894Z,65.10
2018-09-03T11:28:30.037Z,65.40
2018-09-03T11:31:33.092Z,64.30
2018-09-03T11:34:36.060Z,65.00
2018-09-03T11:37:46.145Z,67.20
2018-09-03T11:40:49.236Z,65.70
2018-09-03T11:43:52.328Z,65.70
2018-09-03T11:46:55.379Z,67.50
2018-09-03T11:49:58.513Z,66.80
2018-09-03T11:53:01.611Z,66.30
2018-09-03T11:56:04.698Z,66.60
2018-09-03T11:59:07.773Z,66.80
2018-09-03T12:02:10.943Z,66.20
2018-09-03T12:05:13.862Z,66.70
2018-09-03T12:08:16.997Z,67.20
2018-09-03T12:11:20.122Z,66.30
2018-09-03T12:14:26.649Z,67.60
2018-09-03T12:17:29.694Z,66.60
2018-09-03T12:20:32.637Z,66.40
2018-09-03T12:23:35.606Z,66.10
2018-09-03T12:26:38.635Z,66.60
2018-09-03T12:29:41.618Z,65.30
2018-09-03T12:32:44.629Z,66.10
2018-09-03T12:35:47.673Z,65.90
2018-09-03T12:38:50.750Z,66.50
2018-09-03T12:41:53.802Z,67.00
2018-09-03T12:44:56.866Z,66.70
2018-09-03T12:48:00.011Z,68.10
2018-09-03T12:51:03.785Z,67.50
2018-09-03T12:54:06.872Z,69.10
2018-09-03T12:57:09.927Z,68.80
2018-09-03T13:00:17.519Z,68.20
2018-09-03T13:03:20.594Z,68.00
2018-09-03T13:06:23.726Z,68.50
2018-09-03T13:09:26.241Z,67.60
2018-09-03T13:12:29.234Z,66.60
2018-09-03T13:15:32.143Z,67.40
2018-09-03T13:18:35.420Z,67.60
2018-09-03T13:21:38.423Z,66.30
2018-09-03T13:24:41.409Z,65.90
2018-09-03T13:27:44.577Z,65.80
2018-09-03T13:30:47.704Z,59.70
2018-09-03T13:33:50.854Z,61.20
2018-09-03T13:36:54.221Z,62.50
2018-09-03T13:39:57.933Z,60.10
2018-09-03T13:43:01.417Z,59.70
2018-09-03T13:46:04.754Z,59.70
2018-09-03T13:49:07.773Z,60.60
2018-09-03T13:52:10.936Z,59.90
2018-09-03T13:55:15.464Z,60.50
2018-09-03T13:58:18.938Z,61.00
2018-09-03T14:02:25.776Z,62.10
2018-09-03T14:05:28.959Z,64.10
2018-09-03T14:08:32.117Z,66.40
2018-09-03T14:11:35.286Z,72.10
2018-09-03T14:14:38.484Z,73.80
2018-09-03T14:17:41.861Z,75.40
2018-09-03T14:20:45.764Z,76.40
2018-09-03T14:23:49.161Z,76.20
2018-09-03T14:26:52.398Z,76.80
2018-09-03T14:29:55.896Z,77.50
2018-09-03T14:32:59.218Z,78.40
2018-09-03T14:36:02.494Z,78.40
2018-09-03T14:39:09.342Z,78.50
2018-09-03T14:42:12.509Z,78.90
2018-09-03T14:45:18.300Z,78.10
2018-09-03T14:48:21.714Z,77.50
2018-09-03T14:51:25.626Z,77.90
2018-09-03T14:54:29.764Z,77.20
2018-09-03T14:57:33.276Z,77.90
2018-09-03T15:00:36.502Z,77.20
2018-09-03T15:03:39.547Z,77.40
2018-09-03T15:06:42.766Z,77.60
2018-09-03T15:09:46.173Z,76.40
2018-09-03T15:12:49.419Z,76.90
2018-09-03T15:15:52.685Z,76.20
2018-09-03T15:18:56.035Z,74.70
2018-09-03T15:21:59.750Z,76.90
2018-09-03T15:25:03.008Z,77.20
2018-09-03T15:28:06.333Z,78.30
2018-09-03T15:31:09.876Z,78.40
2018-09-03T15:34:13.112Z,78.10
2018-09-03T15:37:16.370Z,78.00
2018-09-03T15:40:19.367Z,77.60
2018-09-03T15:43:22.638Z,77.30
2018-09-03T15:46:25.718Z,78.00
2018-09-03T15:49:29.009Z,77.70
2018-09-03T15:52:32.332Z,75.20
2018-09-03T15:55:35.332Z,75.70
2018-09-03T15:58:38.517Z,75.60
2018-09-03T16:01:41.462Z,76.80
2018-09-03T16:04:44.350Z,76.20
2018-09-03T16:07:47.252Z,75.30
2018-09-03T16:10:50.212Z,76.50
2018-09-03T16:13:53.309Z,76.90
2018-09-03T16:16:56.469Z,77.40
2018-09-03T16:20:00.097Z,77.30
2018-09-03T16:23:02.949Z,78.40
2018-09-03T16:26:05.905Z,78.30
2018-09-03T16:29:08.757Z,78.40
2018-09-03T16:32:11.732Z,77.70
2018-09-03T16:35:16.236Z,77.20
2018-09-03T16:38:20.002Z,77.60
2018-09-03T16:41:24.174Z,78.00
2018-09-03T16:44:28.087Z,77.60
2018-09-03T16:47:32.004Z,78.40
2018-09-03T16:50:34.974Z,78.60
2018-09-03T16:53:37.990Z,77.70
2018-09-03T16:56:41.028Z,79.20
2018-09-03T16:59:44.195Z,78.20
2018-09-03T17:02:47.609Z,78.50
2018-09-03T17:05:51.007Z,78.20
2018-09-03T17:08:54.212Z,78.00
2018-09-03T17:11:57.590Z,71.30
2018-09-03T17:15:00.699Z,70.30
2018-09-03T17:18:04.043Z,75.90
2018-09-03T17:21:07.598Z,76.80
2018-09-03T17:24:10.724Z,77.50
2018-09-03T17:27:13.823Z,77.40
2018-09-03T17:30:16.973Z,77.40
2018-09-03T17:33:20.115Z,77.70
2018-09-03T17:36:23.293Z,78.00
2018-09-03T17:39:26.247Z,77.90
2018-09-03T17:42:29.263Z,77.70
2018-09-03T17:45:32.282Z,77.70
2018-09-03T17:48:35.612Z,77.50
2018-09-03T17:51:39.066Z,77.60
2018-09-03T17:54:42.073Z,77.40
2018-09-03T17:57:45.032Z,77.20
2018-09-03T18:00:50.118Z,77.20
2018-09-03T18:03:53.643Z,76.80
2018-09-03T18:07:02.934Z,77.20
2018-09-03T18:11:15.613Z,77.40
